Time;durP1;ratioP1;P1;durP2;ratioP2;P2;SDS_P1;SDS_P2;PMS_P1;PMS_P2;Temp;Humidity;BMP_temperature;BMP_pressure;BME280_temperature;BME280_humidity;BME280_pressure;Samples;Min_cycle;Max_cycle;Signal;HPM_P1;HPM_P2
2022/02/12 00:00:56;;;;;;;18.88;8.95;;;;;;;3.73;73.92;103307.16;4994167;28;20134;-42
2022/02/12 00:03:27;;;;;;;23.02;9.15;;;;;;;3.72;73.95;103300.06;4994062;28;20046;-44
2022/02/12 00:05:55;;;;;;;19.45;8.25;;;;;;;3.69;74.39;103305.78;4994063;28;20050;-44
2022/02/12 00:08:23;;;;;;;17.75;7.68;;;;;;;3.66;74.34;103295.34;4994358;28;20046;-42
2022/02/12 00:10:51;;;;;;;22.50;8.38;;;;;;;3.61;74.24;103292.28;4993966;28;20047;-43
2022/02/12 00:13:19;;;;;;;19.15;8.10;;;;;;;3.58;74.54;103295.28;4976788;28;20042;-41
2022/02/12 00:15:47;;;;;;;22.02;8.57;;;;;;;3.52;74.92;103288.69;4994567;28;20057;-44
2022/02/12 00:18:15;;;;;;;18.45;8.75;;;;;;;3.50;74.92;103287.16;4976799;28;20088;-43
2022/02/12 00:20:43;;;;;;;18.52;8.55;;;;;;;3.52;74.72;103288.69;4994198;28;20097;-44
2022/02/12 00:23:11;;;;;;;19.75;7.78;;;;;;;3.52;74.99;103282.44;4993966;28;20046;-45
2022/02/12 00:25:39;;;;;;;19.40;8.27;;;;;;;3.52;74.30;103282.44;4993393;28;20042;-44
2022/02/12 00:28:07;;;;;;;16.67;7.90;;;;;;;3.51;74.40;103269.97;4993877;28;20051;-43
2022/02/12 00:30:37;;;;;;;18.00;7.93;;;;;;;3.52;74.50;103271.66;4993776;28;20050;-44
2022/02/12 00:33:08;;;;;;;21.73;8.50;;;;;;;3.51;74.84;103273.53;4993425;28;20062;-44
2022/02/12 00:35:36;;;;;;;19.55;7.80;;;;;;;3.50;75.03;103266.44;4993808;28;20052;-44
2022/02/12 00:38:04;;;;;;;17.77;7.93;;;;;;;3.52;74.50;103269.81;4994141;28;20061;-43
2022/02/12 00:40:32;;;;;;;16.98;8.10;;;;;;;3.53;74.85;103262.56;4977105;28;20046;-44
2022/02/12 00:42:59;;;;;;;22.25;7.90;;;;;;;3.51;74.33;103265.44;4993517;28;20054;-44
2022/02/12 00:45:30;;;;;;;16.48;7.70;;;;;;;3.42;74.55;103267.25;4993660;28;20042;-45
2022/02/12 00:47:58;;;;;;;20.98;8.23;;;;;;;3.38;74.49;103263.16;4997645;28;20046;-43
2022/02/12 00:50:25;;;;;;;18.05;7.78;;;;;;;3.32;74.74;103257.56;4997594;28;20096;-44
2022/02/12 00:52:57;;;;;;;17.10;7.72;;;;;;;3.33;75.06;103261.97;4997882;28;20046;-43
2022/02/12 00:55:25;;;;;;;20.88;8.32;;;;;;;3.34;74.83;103259.13;4996940;28;20432;-43
2022/02/12 00:57:52;;;;;;;16.35;7.55;;;;;;;3.34;75.10;103259.13;4997536;28;20048;-45
2022/02/12 01:00:24;;;;;;;17.60;7.35;;;;;;;3.31;74.81;103248.63;4997818;28;20050;-43
2022/02/12 01:02:52;;;;;;;18.77;7.38;;;;;;;3.27;74.22;103241.91;4997320;28;20050;-44
2022/02/12 01:05:20;;;;;;;19.60;8.30;;;;;;;3.22;74.76;103237.97;4997341;28;20056;-44
2022/02/12 01:07:48;;;;;;;16.27;7.38;;;;;;;3.22;74.38;103244.19;4980403;28;20105;-42
2022/02/12 01:10:16;;;;;;;17.70;7.28;;;;;;;3.16;74.16;103244.84;4997264;28;20046;-42
2022/02/12 01:12:43;;;;;;;18.90;7.65;;;;;;;3.07;74.82;103243.09;4979731;28;20046;-44
2022/02/12 01:15:11;;;;;;;19.55;8.00;;;;;;;3.10;75.55;103243.66;4980073;28;20050;-45
2022/02/12 01:17:39;;;;;;;18.00;7.57;;;;;;;3.15;75.79;103238.63;4963958;28;20046;-41
2022/02/12 01:20:07;;;;;;;16.33;7.10;;;;;;;3.18;75.42;103237.47;4997420;28;20046;-43
2022/02/12 01:22:37;;;;;;;19.60;7.45;;;;;;;3.21;74.90;103237.13;4996756;28;20039;-43
2022/02/12 01:25:06;;;;;;;19.23;7.90;;;;;;;3.26;75.13;103234.81;4996730;28;20042;-44
2022/02/12 01:27:34;;;;;;;17.60;7.18;;;;;;;3.23;74.41;103229.75;4996930;28;20046;-43
2022/02/12 01:30:03;;;;;;;17.58;7.72;;;;;;;3.17;74.43;103227.69;4996932;28;20042;-43
2022/02/12 01:32:31;;;;;;;20.20;7.63;;;;;;;3.11;74.83;103226.47;4996804;28;20042;-44
2022/02/12 01:34:59;;;;;;;18.08;7.97;;;;;;;3.07;75.03;103218.88;4979133;28;20125;-45
2022/02/12 01:37:27;;;;;;;18.55;7.53;;;;;;;3.09;75.08;103219.56;4996681;28;20046;-43
2022/02/12 01:39:55;;;;;;;18.00;8.00;;;;;;;3.08;75.18;103224.09;4997054;28;20053;-43
2022/02/12 01:42:22;;;;;;;16.50;7.70;;;;;;;3.03;74.65;103228.25;4996575;28;20043;-43
2022/02/12 01:44:50;;;;;;;22.00;8.30;;;;;;;2.94;74.89;103220.13;4996417;28;20046;-43
2022/02/12 01:47:18;;;;;;;21.67;8.43;;;;;;;2.87;74.99;103218.25;4996789;28;20059;-44
2022/02/12 01:49:46;;;;;;;19.00;8.38;;;;;;;2.77;75.43;103215.66;4996459;28;20046;-43
2022/02/12 01:52:15;;;;;;;16.75;7.65;;;;;;;2.76;75.32;103217.47;4996759;28;20105;-44
2022/02/12 01:54:42;;;;;;;19.10;9.00;;;;;;;2.75;75.56;103214.97;4978545;28;20042;-43
2022/02/12 01:57:10;;;;;;;18.48;7.60;;;;;;;2.77;76.06;103218.34;4995909;28;20069;-44
2022/02/12 01:59:40;;;;;;;17.98;7.50;;;;;;;2.82;76.37;103213.31;4996481;28;20042;-45
2022/02/12 02:02:10;;;;;;;17.85;7.50;;;;;;;2.89;75.86;103211.69;4976942;28;20057;-43
2022/02/12 02:04:41;;;;;;;19.15;7.10;;;;;;;2.96;75.97;103217.31;4989771;28;20134;-44
2022/02/12 02:07:12;;;;;;;15.52;7.30;;;;;;;3.02;75.13;103208.56;4996255;28;20050;-45
2022/02/12 02:09:41;;;;;;;16.63;7.43;;;;;;;3.04;75.31;103203.88;4996280;28;20097;-44
2022/02/12 02:12:09;;;;;;;18.30;7.55;;;;;;;3.09;75.82;103211.47;4978719;28;20125;-45
2022/02/12 02:14:40;;;;;;;18.65;7.35;;;;;;;3.06;74.72;103206.41;4996128;28;20046;-43
2022/02/12 02:17:09;;;;;;;17.83;7.43;;;;;;;3.02;74.88;103194.25;4978949;28;20054;-43
2022/02/12 02:19:38;;;;;;;19.48;7.93;;;;;;;3.02;74.89;103188.88;4979015;28;20050;-44
2022/02/12 02:22:06;;;;;;;15.88;6.93;;;;;;;2.97;74.86;103184.81;4995690;28;20052;-44
2022/02/12 02:24:35;;;;;;;14.93;6.57;;;;;;;2.98;75.69;103182.94;4978695;28;20047;-43
2022/02/12 02:27:07;;;;;;;19.67;7.30;;;;;;;3.04;75.39;103173.41;4995702;28;20158;-43
2022/02/12 02:29:40;;;;;;;16.30;6.32;;;;;;;3.05;74.44;103177.78;4996062;28;20042;-43
2022/02/12 02:32:10;;;;;;;20.48;7.30;;;;;;;2.96;74.59;103180.44;4995450;28;20077;-45
2022/02/12 02:34:49;;;;;;;17.70;7.38;;;;;;;2.94;75.35;103174.34;4978701;28;20088;-44
2022/02/12 02:37:18;;;;;;;18.92;7.35;;;;;;;2.96;75.13;103174.22;4996394;28;20063;-44
2022/02/12 02:39:46;;;;;;;18.63;7.43;;;;;;;2.99;75.23;103176.56;4995870;28;20046;-44
2022/02/12 02:42:14;;;;;;;17.02;7.18;;;;;;;3.03;75.22;103169.88;4995240;28;20053;-44
2022/02/12 02:44:42;;;;;;;17.63;6.78;;;;;;;3.04;74.43;103165.31;4995794;28;20043;-44
2022/02/12 02:50:01;;;;;;;17.95;7.00;;;;;;;2.95;74.59;103162.56;4995578;28;20089;-43
2022/02/12 02:58:04;;;;;;;13.63;6.80;;;;;;;2.96;74.20;103153.50;4994922;28;20111;-44
2022/02/12 03:00:32;;;;;;;20.25;6.78;;;;;;;2.94;74.19;103150.13;4995608;28;20058;-41
2022/02/12 03:02:59;;;;;;;18.90;6.95;;;;;;;2.86;74.56;103149.22;4995243;28;20078;-43
2022/02/12 03:05:27;;;;;;;17.67;6.47;;;;;;;2.85;74.72;103144.84;4995173;28;20047;-45
2022/02/12 03:07:55;;;;;;;17.45;5.93;;;;;;;2.90;74.71;103139.84;4994593;28;20050;-45
2022/02/12 03:10:23;;;;;;;16.85;6.47;;;;;;;2.80;74.41;103131.88;4994485;28;20050;-45
2022/02/12 03:12:50;;;;;;;16.50;7.05;;;;;;;2.76;74.69;103123.25;4995228;28;20093;-46
2022/02/12 03:15:18;;;;;;;15.57;6.93;;;;;;;2.75;74.57;103110.81;4995463;28;20051;-44
2022/02/12 03:17:46;;;;;;;14.75;6.20;;;;;;;2.76;75.04;103117.03;4995751;28;20046;-43
2022/02/12 03:20:17;;;;;;;17.27;6.97;;;;;;;2.79;75.10;103119.44;4995347;28;20054;-44
2022/02/12 03:22:45;;;;;;;20.95;7.22;;;;;;;2.82;74.22;103119.09;4995221;28;20050;-45
2022/02/12 03:25:13;;;;;;;18.88;7.32;;;;;;;2.78;74.78;103115.88;4995245;28;20053;-44
2022/02/12 03:27:40;;;;;;;19.05;7.28;;;;;;;2.81;74.87;103117.38;4994844;28;20060;-43
2022/02/12 03:30:08;;;;;;;16.20;6.45;;;;;;;2.86;74.73;103115.09;4994557;28;20484;-44
2022/02/12 03:32:36;;;;;;;14.30;6.28;;;;;;;2.85;74.23;103107.16;4995008;28;20064;-44
2022/02/12 03:35:06;;;;;;;17.50;7.10;;;;;;;2.79;74.19;103114.03;4994609;28;20105;-44
2022/02/12 03:37:34;;;;;;;17.38;6.97;;;;;;;2.79;74.72;103108.66;4994456;28;20042;-42
2022/02/12 03:40:02;;;;;;;15.95;6.13;;;;;;;2.82;74.24;103110.19;4994373;28;20089;-43
2022/02/12 03:42:30;;;;;;;16.65;6.65;;;;;;;2.78;74.19;103106.94;4994640;28;20085;-43
2022/02/12 03:44:58;;;;;;;18.90;6.82;;;;;;;2.74;74.35;103101.06;4994477;28;20078;-43
2022/02/12 03:47:26;;;;;;;15.90;6.72;;;;;;;2.76;74.68;103101.72;4977134;28;20046;-44
2022/02/12 03:49:53;;;;;;;18.77;7.18;;;;;;;2.79;74.56;103114.03;4994101;28;20039;-44
2022/02/12 03:52:21;;;;;;;20.88;7.35;;;;;;;2.80;74.41;103118.41;4994504;28;20053;-43
2022/02/12 03:54:50;;;;;;;18.20;6.50;;;;;;;2.81;74.69;103114.69;4976765;28;20054;-43
2022/02/12 03:57:18;;;;;;;18.73;6.70;;;;;;;2.83;74.33;103110.00;4994192;28;20178;-43
2022/02/12 03:59:48;;;;;;;15.70;6.50;;;;;;;2.83;74.11;103107.31;4977115;28;20061;-43
2022/02/12 04:02:17;;;;;;;16.30;6.95;;;;;;;2.82;74.21;103108.31;4994154;28;20047;-43
2022/02/12 04:04:45;;;;;;;16.40;6.50;;;;;;;2.82;74.61;103102.94;4994077;28;20038;-44
2022/02/12 04:07:13;;;;;;;18.00;6.78;;;;;;;2.83;73.87;103101.09;4994234;28;20042;-44
2022/02/12 04:09:42;;;;;;;16.30;7.13;;;;;;;2.76;73.97;103092.81;4993628;28;20038;-44
2022/02/12 04:12:09;;;;;;;18.33;6.40;;;;;;;2.64;74.08;103094.91;4994100;28;20050;-43
2022/02/12 04:14:37;;;;;;;15.20;6.50;;;;;;;2.56;74.71;103098.41;4976586;28;20050;-43
2022/02/12 04:17:05;;;;;;;17.17;6.45;;;;;;;2.58;74.76;103094.72;4976914;28;20039;-46
2022/02/12 04:19:33;;;;;;;21.30;6.85;;;;;;;2.56;75.47;103101.09;4993408;28;20125;-42
2022/02/12 04:22:02;;;;;;;20.27;7.18;;;;;;;2.62;75.18;103090.69;4976569;28;20101;-43
2022/02/12 04:24:29;;;;;;;15.43;6.78;;;;;;;2.66;74.91;103092.06;4993699;28;20042;-43
2022/02/12 04:26:57;;;;;;;24.30;7.38;;;;;;;2.63;75.10;103095.09;4994182;28;20082;-41
2022/02/12 04:29:27;;;;;;;17.63;6.20;;;;;;;2.60;74.63;103098.09;4994042;28;20053;-43
2022/02/12 04:31:56;;;;;;;20.65;7.13;;;;;;;2.60;74.94;103090.00;4994022;28;20134;-43
2022/02/12 04:34:24;;;;;;;18.88;6.88;;;;;;;2.55;75.19;103087.81;4993943;28;20047;-41
2022/02/12 04:36:53;;;;;;;21.10;7.32;;;;;;;2.53;74.93;103081.75;4993861;28;20046;-43
2022/02/12 04:39:21;;;;;;;20.67;7.15;;;;;;;2.50;75.27;103077.53;4993385;28;20050;-43
2022/02/12 04:41:51;;;;;;;18.08;8.07;;;;;;;2.49;75.50;103070.44;4993874;28;20046;-44
2022/02/12 04:44:19;;;;;;;18.83;7.25;;;;;;;2.50;75.13;103064.06;4994229;28;20046;-43
2022/02/12 04:46:47;;;;;;;21.10;7.05;;;;;;;2.47;75.62;103071.59;4976641;28;20053;-42
2022/02/12 04:49:14;;;;;;;18.02;7.45;;;;;;;2.46;75.25;103060.00;4993257;28;20042;-43
2022/02/12 04:51:42;;;;;;;18.25;7.22;;;;;;;2.41;75.53;103059.66;4976266;28;20068;-43
2022/02/12 04:54:10;;;;;;;18.83;7.50;;;;;;;2.40;75.31;103060.63;4993379;28;20101;-43
2022/02/12 04:56:41;;;;;;;18.40;7.20;;;;;;;2.35;75.83;103071.88;4993627;28;20116;-43
2022/02/12 04:59:09;;;;;;;18.80;7.43;;;;;;;2.35;76.10;103068.34;4993228;28;20121;-43
2022/02/12 05:01:37;;;;;;;16.90;6.97;;;;;;;2.40;76.25;103049.88;4993591;28;20050;-44
2022/02/12 05:04:07;;;;;;;17.02;7.07;;;;;;;2.43;75.71;103048.72;4993554;28;20046;-44
2022/02/12 05:06:35;;;;;;;19.17;7.40;;;;;;;2.42;76.04;103042.50;4993280;28;20101;-44
2022/02/12 05:09:04;;;;;;;17.10;6.72;;;;;;;2.45;75.85;103041.31;4993289;28;20050;-45
2022/02/12 05:11:34;;;;;;;18.38;6.78;;;;;;;2.40;75.80;103051.72;4993476;28;20058;-45
2022/02/12 05:14:03;;;;;;;22.17;7.50;;;;;;;2.32;75.89;103047.13;4993368;28;20054;-46
2022/02/12 05:16:30;;;;;;;19.85;7.85;;;;;;;2.27;76.14;103038.72;4993499;28;20093;-42
2022/02/12 05:19:00;;;;;;;16.60;6.63;;;;;;;2.23;76.48;103038.16;4993350;28;20133;-44
2022/02/12 05:21:28;;;;;;;19.90;7.22;;;;;;;2.27;76.90;103033.31;4976064;28;20093;-44
2022/02/12 05:23:56;;;;;;;16.63;7.25;;;;;;;2.29;76.74;103031.31;4993064;28;20042;-43
2022/02/12 05:26:24;;;;;;;18.83;7.35;;;;;;;2.27;76.46;103027.94;4993374;28;20058;-44
2022/02/12 05:28:54;;;;;;;18.95;7.25;;;;;;;2.23;76.68;103027.41;4993042;28;20054;-43
2022/02/12 05:31:22;;;;;;;15.07;6.60;;;;;;;2.24;76.34;103020.19;4993292;28;20101;-43
2022/02/12 05:33:50;;;;;;;21.38;7.53;;;;;;;2.17;76.98;103016.47;4997435;28;20133;-44
2022/02/12 05:36:17;;;;;;;18.65;6.90;;;;;;;2.18;77.09;103012.75;4997311;28;20105;-43
2022/02/12 05:38:45;;;;;;;23.50;7.97;;;;;;;2.20;77.46;103008.06;4979139;28;20125;-44
2022/02/12 05:41:14;;;;;;;17.80;6.97;;;;;;;2.25;77.44;103005.75;4996862;28;20097;-45
2022/02/12 05:43:43;;;;;;;21.63;7.97;;;;;;;2.27;77.46;103014.50;4979762;28;20105;-43
2022/02/12 05:46:11;;;;;;;19.83;7.22;;;;;;;2.28;77.26;103008.94;4996615;28;20047;-45
2022/02/12 05:48:39;;;;;;;21.80;8.57;;;;;;;2.20;77.56;103002.69;4996491;28;20135;-47
2022/02/12 05:51:07;;;;;;;20.92;8.50;;;;;;;2.11;77.87;103002.63;4979486;28;20074;-44
2022/02/12 05:53:35;;;;;;;22.08;7.57;;;;;;;2.06;78.16;103001.41;4996365;28;20050;-44
2022/02/12 05:56:03;;;;;;;20.02;7.60;;;;;;;2.00;78.40;102992.13;4996637;28;20137;-46
2022/02/12 05:58:31;;;;;;;23.15;8.52;;;;;;;2.00;78.96;102994.00;4995934;28;20046;-44
2022/02/12 06:00:59;;;;;;;24.17;8.65;;;;;;;2.03;78.78;102989.13;4996440;28;20041;-46
2022/02/12 06:03:29;;;;;;;22.13;8.30;;;;;;;2.04;78.68;102996.19;4995979;28;20121;-47
2022/02/12 06:05:57;;;;;;;20.63;7.55;;;;;;;2.02;78.69;102984.75;4996204;28;20083;-47
2022/02/12 06:08:25;;;;;;;18.77;7.28;;;;;;;1.99;78.87;102979.69;4996193;28;20510;-45
2022/02/12 06:10:53;;;;;;;17.70;7.10;;;;;;;2.04;78.95;102976.53;4995952;28;20045;-41
2022/02/12 06:13:20;;;;;;;18.77;6.95;;;;;;;2.06;79.33;102977.22;4996403;28;20077;-46
2022/02/12 06:15:48;;;;;;;20.17;6.68;;;;;;;2.09;79.16;102972.38;4996243;28;20053;-48
2022/02/12 06:18:16;;;;;;;20.00;7.13;;;;;;;2.09;79.16;102975.06;4959150;28;20054;-46
2022/02/12 06:20:44;;;;;;;13.32;6.25;;;;;;;2.10;79.02;102974.06;4959481;28;20050;-47
2022/02/12 06:23:12;;;;;;;18.52;7.40;;;;;;;2.12;78.87;102971.22;4976484;28;20071;-45
2022/02/12 06:25:40;;;;;;;17.90;6.45;;;;;;;2.15;78.86;102964.66;4976056;28;20058;-45
2022/02/12 06:28:11;;;;;;;17.55;6.45;;;;;;;2.17;78.70;102962.66;4990619;28;20074;-48
2022/02/12 06:30:39;;;;;;;18.20;6.65;;;;;;;2.20;78.29;102960.50;4995631;28;20042;-45
2022/02/12 06:33:07;;;;;;;17.30;7.15;;;;;;;2.19;77.87;102949.88;4995988;28;20078;-46
2022/02/12 06:35:35;;;;;;;22.52;7.35;;;;;;;2.09;77.69;102948.19;4978549;28;20070;-45
2022/02/12 06:38:02;;;;;;;16.42;6.63;;;;;;;2.02;78.46;102949.81;4995368;28;20054;-44
2022/02/12 06:40:30;;;;;;;14.77;6.35;;;;;;;2.09;77.91;102945.50;4995483;28;20057;-43
2022/02/12 06:42:58;;;;;;;20.75;6.78;;;;;;;2.03;77.91;102951.47;4995337;28;20129;-44
2022/02/12 06:45:33;;;;;;;15.23;5.93;;;;;;;1.91;78.37;102947.38;4995387;28;20038;-44
2022/02/12 06:48:03;;;;;;;16.10;6.30;;;;;;;1.90;78.57;102946.53;4995090;28;20062;-42
2022/02/12 06:50:32;;;;;;;16.27;6.25;;;;;;;1.97;78.88;102951.28;4994604;28;20093;-44
2022/02/12 06:53:00;;;;;;;18.60;6.57;;;;;;;2.01;78.68;102948.09;4995119;28;20046;-45
2022/02/12 06:55:28;;;;;;;19.50;6.45;;;;;;;2.04;78.04;102947.78;4994607;28;20096;-45
2022/02/12 06:57:56;;;;;;;14.60;5.57;;;;;;;2.02;77.91;102948.94;4995254;28;20042;-44
2022/02/12 07:00:24;;;;;;;15.90;5.55;;;;;;;2.04;78.36;102947.78;4994713;28;20035;-44
2022/02/12 07:02:52;;;;;;;14.02;5.90;;;;;;;2.06;77.84;102945.78;4994963;28;20108;-45
2022/02/12 07:05:19;;;;;;;13.50;6.03;;;;;;;2.06;77.53;102951.16;4994922;28;20077;-43
2022/02/12 07:07:48;;;;;;;15.27;5.70;;;;;;;2.12;77.50;102949.69;4995139;28;20118;-44
2022/02/12 07:10:17;;;;;;;19.42;6.15;;;;;;;2.15;77.84;102954.75;4994766;28;20052;-46
2022/02/12 07:12:45;;;;;;;14.02;5.78;;;;;;;2.06;77.59;102951.16;4994410;28;20126;-45
2022/02/12 07:15:13;;;;;;;13.13;5.28;;;;;;;2.07;77.88;102952.03;4994880;28;20046;-44
2022/02/12 07:17:40;;;;;;;18.95;5.85;;;;;;;2.10;78.03;102954.38;4977234;28;20121;-44
2022/02/12 07:20:13;;;;;;;14.48;6.10;;;;;;;2.09;77.87;102955.38;4994540;28;20046;-46
2022/02/12 07:22:41;;;;;;;14.65;6.07;;;;;;;2.09;77.60;102948.19;4977480;28;20058;-47
2022/02/12 07:25:15;;;;;;;14.85;5.75;;;;;;;2.11;77.74;102948.84;4994592;28;20046;-46
2022/02/12 07:27:43;;;;;;;20.02;5.45;;;;;;;2.16;77.60;102942.97;4977322;28;20046;-45
2022/02/12 07:30:16;;;;;;;19.30;6.20;;;;;;;2.18;76.89;102934.75;4994202;28;20046;-46
2022/02/12 07:32:44;;;;;;;11.65;4.55;;;;;;;2.10;77.24;102939.09;4975008;28;20491;-42
2022/02/12 07:35:13;;;;;;;18.67;6.40;;;;;;;2.17;78.28;102935.78;4974981;28;20468;-45
2022/02/12 07:37:44;;;;;;;13.63;5.18;;;;;;;2.11;77.90;102924.63;4975250;28;20053;-44
2022/02/12 07:40:14;;;;;;;17.42;5.30;;;;;;;2.10;77.95;102936.41;4981436;28;20061;-44
2022/02/12 07:42:44;;;;;;;18.23;6.22;;;;;;;2.17;77.86;102927.72;4977037;28;20065;-42
2022/02/12 07:45:13;;;;;;;17.98;5.97;;;;;;;2.16;77.45;102934.06;4994771;28;20089;-45
2022/02/12 07:47:41;;;;;;;13.05;5.30;;;;;;;2.15;77.45;102927.84;4977419;28;20046;-43
2022/02/12 07:50:11;;;;;;;17.80;4.78;;;;;;;2.13;77.20;102925.31;4993960;28;20065;-43
2022/02/12 07:52:42;;;;;;;18.00;5.93;;;;;;;2.12;77.19;102929.03;4976944;28;20043;-44
2022/02/12 07:55:14;;;;;;;15.27;5.93;;;;;;;2.12;77.19;102922.81;4976807;28;20441;-43
2022/02/12 07:57:42;;;;;;;14.18;6.03;;;;;;;2.13;77.30;102919.94;4975238;28;20081;-43
2022/02/12 08:00:11;;;;;;;14.73;5.38;;;;;;;2.18;77.59;102930.22;4974850;28;20054;-43
2022/02/12 08:02:39;;;;;;;17.20;5.65;;;;;;;2.20;77.22;102920.16;4993655;28;20047;-44
2022/02/12 08:05:08;;;;;;;14.13;5.30;;;;;;;2.18;77.29;102915.94;4994230;28;20058;-45
2022/02/12 08:07:38;;;;;;;16.25;5.93;;;;;;;2.23;77.98;102916.28;4993878;28;20042;-42
2022/02/12 08:12:57;;;;;;;14.93;5.65;;;;;;;2.33;78.24;102908.94;4979209;28;20452;-41
2022/02/12 08:15:26;;;;;;;13.73;5.63;;;;;;;2.27;77.60;102905.06;4976946;28;20042;-41
2022/02/12 08:17:53;;;;;;;14.95;6.15;;;;;;;2.26;77.58;102902.50;4993996;28;20058;-40
2022/02/12 08:20:21;;;;;;;17.05;6.07;;;;;;;2.26;77.72;102907.91;4994162;28;20042;-41
2022/02/12 08:22:52;;;;;;;19.80;6.82;;;;;;;2.24;78.33;102904.56;4993959;28;20046;-42
2022/02/12 08:25:20;;;;;;;14.13;5.70;;;;;;;2.27;78.08;102904.22;4994134;28;20045;-44
2022/02/12 08:27:48;;;;;;;15.63;6.25;;;;;;;2.26;77.58;102894.44;4993704;28;20070;-44
2022/02/12 08:30:18;;;;;;;19.02;6.25;;;;;;;2.26;77.72;102899.81;4993756;28;20046;-44
2022/02/12 08:32:46;;;;;;;20.10;6.40;;;;;;;2.30;78.10;102893.97;4993401;28;20093;-45
2022/02/12 08:35:14;;;;;;;17.98;5.93;;;;;;;2.27;77.59;102888.91;4993758;28;20050;-45
2022/02/12 08:37:44;;;;;;;16.33;6.10;;;;;;;2.23;77.75;102897.47;4993771;28;20047;-45
2022/02/12 08:40:18;;;;;;;19.02;6.65;;;;;;;2.24;78.36;102896.47;4976723;28;20042;-43
2022/02/12 08:42:50;;;;;;;15.57;6.40;;;;;;;2.32;77.84;102891.13;4993696;28;20113;-45
2022/02/12 08:45:18;;;;;;;17.48;5.80;;;;;;;2.28;77.03;102882.53;4976551;28;20042;-45
2022/02/12 08:47:45;;;;;;;18.40;6.43;;;;;;;2.19;77.41;102891.59;4993664;28;20069;-44
2022/02/12 08:50:15;;;;;;;20.23;5.80;;;;;;;2.22;77.54;102890.41;4993676;28;20058;-44
2022/02/12 08:52:44;;;;;;;19.08;5.70;;;;;;;2.25;77.57;102887.41;4976598;28;20057;-45
2022/02/12 08:55:13;;;;;;;19.83;6.35;;;;;;;2.26;77.15;102886.38;4993534;28;20042;-44
2022/02/12 08:57:41;;;;;;;16.70;5.55;;;;;;;2.25;77.37;102884.72;4975952;28;20074;-44
2022/02/12 09:00:12;;;;;;;15.18;5.65;;;;;;;2.26;76.95;102889.06;4976040;28;20097;-44
2022/02/12 09:03:03;;;;;;;14.82;5.75;;;;;;;2.26;77.01;102886.38;4993406;28;20050;-45
2022/02/12 09:05:31;;;;;;;17.33;5.88;;;;;;;2.32;77.52;102880.38;4992512;28;20093;-45
2022/02/12 09:07:59;;;;;;;15.25;5.85;;;;;;;2.34;77.56;102887.25;4975194;28;20050;-46
2022/02/12 09:10:27;;;;;;;17.95;5.90;;;;;;;2.39;76.89;102884.09;4982620;28;20049;-44
2022/02/12 09:12:55;;;;;;;17.35;6.00;;;;;;;2.44;76.19;102883.59;4979783;28;20100;-45
2022/02/12 09:15:23;;;;;;;14.85;5.55;;;;;;;2.47;76.17;102880.56;4996909;28;20046;-44
2022/02/12 09:17:51;;;;;;;15.32;5.13;;;;;;;2.49;75.76;102878.56;4979883;28;20089;-44
2022/02/12 09:20:19;;;;;;;18.52;7.22;;;;;;;2.59;77.62;102875.75;4979702;28;20097;-45
2022/02/12 09:22:48;;;;;;;17.15;6.50;;;;;;;2.64;78.95;102862.63;4997050;28;20100;-44
2022/02/12 09:25:15;;;;;;;16.73;5.38;;;;;;;2.61;77.44;102868.34;4996867;28;20100;-46
2022/02/12 09:27:43;;;;;;;19.65;6.00;;;;;;;2.66;78.24;102863.31;4964063;28;20292;-44
2022/02/12 09:30:11;;;;;;;20.77;6.25;;;;;;;2.74;79.76;102855.25;4997386;28;20046;-48
2022/02/12 09:32:39;;;;;;;23.70;7.03;;;;;;;3.28;97.33;102852.94;4979818;28;20047;-47
2022/02/12 09:35:07;;;;;;;21.58;6.75;;;;;;;3.62;100.00;102851.88;4996828;28;20101;-48
2022/02/12 09:37:35;;;;;;;17.73;6.00;;;;;;;3.68;100.00;102853.88;4996665;28;20050;-46
2022/02/12 09:40:04;;;;;;;14.32;5.32;;;;;;;3.30;88.44;102837.44;4996718;28;20046;-45
2022/02/12 09:42:32;;;;;;;21.42;6.45;;;;;;;3.69;100.00;102836.69;4996790;28;20082;-45
2022/02/12 09:45:00;;;;;;;16.08;5.43;;;;;;;3.34;88.08;102833.41;4979506;28;20150;-45
2022/02/12 09:47:49;;;;;;;15.40;5.10;;;;;;;3.10;85.63;102825.31;4996422;28;20054;-44
2022/02/12 09:50:19;;;;;;;15.40;5.03;;;;;;;2.95;82.25;102823.28;4979391;28;20101;-43
2022/02/12 09:52:52;;;;;;;14.95;5.30;;;;;;;2.91;82.71;102816.59;4996242;28;20042;-43
2022/02/12 09:55:22;;;;;;;17.83;5.13;;;;;;;3.12;86.33;102815.22;4978340;28;20082;-44
2022/02/12 09:57:50;;;;;;;13.48;5.15;;;;;;;3.28;91.60;102817.91;4979159;28;20081;-44
2022/02/12 10:00:19;;;;;;;19.75;5.38;;;;;;;3.23;86.59;102809.50;4995903;28;20129;-44
2022/02/12 10:02:48;;;;;;;13.77;5.03;;;;;;;3.34;86.57;102813.66;4995941;28;20046;-43
2022/02/12 10:05:28;;;;;;;15.00;4.85;;;;;;;3.26;83.52;102803.75;4996046;28;20125;-43
2022/02/12 10:08:15;;;;;;;16.77;5.50;;;;;;;3.51;93.48;102796.47;4996286;28;20073;-44
2022/02/12 10:10:45;;;;;;;15.20;5.43;;;;;;;3.47;93.29;102794.31;4995730;28;20048;-45
2022/02/12 10:13:28;;;;;;;14.88;5.50;;;;;;;3.70;98.56;102792.53;4976756;28;20053;-47
2022/02/12 10:15:58;;;;;;;14.65;5.00;;;;;;;4.01;100.00;102792.56;4959754;28;20039;-46
2022/02/12 10:18:31;;;;;;;18.25;5.65;;;;;;;4.35;100.00;102787.84;4975311;28;20051;-46
2022/02/12 10:21:01;;;;;;;14.63;5.30;;;;;;;4.20;100.00;102785.91;4995325;28;20074;-45
2022/02/12 10:23:31;;;;;;;16.55;5.13;;;;;;;4.20;100.00;102772.41;4995549;28;20046;-45
2022/02/12 10:26:09;;;;;;;14.30;5.45;;;;;;;3.93;98.97;102773.75;4977104;28;20043;-44
2022/02/12 10:28:43;;;;;;;17.88;5.40;;;;;;;3.68;94.53;102772.16;5011734;28;20064;-44
2022/02/12 10:31:11;;;;;;;18.40;7.05;;;;;;;3.64;92.05;102771.69;4989876;28;20049;-46
2022/02/12 10:33:44;;;;;;;14.63;5.38;;;;;;;3.78;97.37;102765.56;4978077;28;20113;-46
2022/02/12 10:36:16;;;;;;;14.93;6.82;;;;;;;3.84;97.64;102761.31;4999224;28;20089;-44
2022/02/12 10:38:51;;;;;;;26.77;12.75;;;;;;;3.75;91.94;102759.66;5011628;28;20046;-44
2022/02/12 10:41:22;;;;;;;20.77;8.98;;;;;;;3.84;95.37;102750.53;5014579;28;20046;-43
2022/02/12 10:43:54;;;;;;;16.55;6.53;;;;;;;3.85;95.45;102752.22;5009398;28;20047;-45
2022/02/12 10:46:23;;;;;;;19.45;6.65;;;;;;;3.66;83.97;102750.78;4987532;28;20050;-43
2022/02/12 10:48:51;;;;;;;16.85;6.57;;;;;;;3.60;82.50;102751.47;4978442;28;20047;-44
2022/02/12 10:51:21;;;;;;;14.13;5.20;;;;;;;3.58;85.84;102748.09;4992388;28;20142;-44
2022/02/12 10:54:07;;;;;;;16.90;5.55;;;;;;;3.60;82.12;102741.50;5004345;28;20101;-43
2022/02/12 10:56:51;;;;;;;15.38;4.90;;;;;;;3.73;87.67;102740.97;5002124;28;20133;-45
2022/02/12 10:59:21;;;;;;;18.65;5.30;;;;;;;3.90;86.79;102740.91;5013188;28;20060;-44
2022/02/12 11:01:51;;;;;;;12.07;4.57;;;;;;;4.03;90.22;102724.97;5011216;28;20081;-44
2022/02/12 11:04:19;;;;;;;13.00;4.97;;;;;;;4.09;90.49;102723.41;5005170;28;20050;-45
2022/02/12 11:06:48;;;;;;;13.25;5.13;;;;;;;4.11;85.72;102722.22;4958583;28;20134;-45
2022/02/12 11:09:18;;;;;;;13.45;4.90;;;;;;;4.43;93.53;102725.75;4984930;28;20042;-45
2022/02/12 11:11:47;;;;;;;11.82;4.97;;;;;;;4.37;89.50;102721.88;4996716;28;20180;-47
2022/02/12 11:14:17;;;;;;;12.98;5.10;;;;;;;4.24;88.09;102711.69;5006727;28;20157;-43
2022/02/12 11:16:46;;;;;;;15.57;5.68;;;;;;;4.31;88.56;102713.69;4976365;28;20129;-46
2022/02/12 11:19:14;;;;;;;13.82;5.15;;;;;;;4.18;84.35;102701.59;4992951;28;20133;-46
2022/02/12 11:21:42;;;;;;;15.95;5.18;;;;;;;4.05;79.58;102695.97;5011022;28;20038;-45
2022/02/12 11:24:14;;;;;;;17.75;5.45;;;;;;;3.96;77.80;102697.88;5005710;28;20042;-44
2022/02/12 11:26:46;;;;;;;15.38;5.10;;;;;;;3.91;77.16;102696.72;5002812;28;20034;-46
2022/02/12 11:29:33;;;;;;;13.75;4.50;;;;;;;3.98;76.84;102695.84;4979783;28;20054;-46
2022/02/12 11:32:11;;;;;;;14.25;4.95;;;;;;;4.52;95.38;102686.84;4993576;28;20039;-46
2022/02/12 11:35:02;;;;;;;14.05;4.88;;;;;;;4.78;98.56;102688.31;4994115;28;20121;-45
2022/02/12 11:37:37;;;;;;;15.32;4.60;;;;;;;5.25;100.00;102681.75;4994941;28;20047;-45
2022/02/12 11:40:25;;;;;;;13.77;4.63;;;;;;;5.47;100.00;102688.06;5008361;28;20052;-46
2022/02/12 11:42:56;;;;;;;12.25;4.50;;;;;;;6.36;100.00;102664.31;5010587;28;20117;-45
2022/02/12 11:45:43;;;;;;;16.45;4.88;;;;;;;6.77;98.01;102654.66;5002230;28;20062;-45